createdAt,value
2018-02-05T00:00:14.843Z,42.30
2018-02-05T00:02:41.480Z,39.58
2018-02-05T00:05:08.143Z,36.55
2018-02-05T00:07:34.818Z,36.63
2018-02-05T00:10:01.456Z,36.88
2018-02-05T00:12:28.153Z,32.63
2018-02-05T00:14:54.768Z,36.33
2018-02-05T00:17:21.420Z,41.60
2018-02-05T00:19:48.051Z,36.28
2018-02-05T00:22:14.719Z,34.10
2018-02-05T00:24:41.351Z,35.85
2018-02-05T00:27:08.469Z,35.05
2018-02-05T00:29:36.228Z,34.47
2018-02-05T00:32:02.883Z,31.62
2018-02-05T00:34:29.535Z,33.55
2018-02-05T00:36:56.175Z,37.17
2018-02-05T00:39:22.856Z,32.97
2018-02-05T00:41:49.495Z,32.65
2018-02-05T00:44:16.147Z,30.65
2018-02-05T00:46:42.798Z,32.38
2018-02-05T00:49:09.447Z,35.35
2018-02-05T00:51:36.090Z,30.73
2018-02-05T00:54:02.756Z,24.95
2018-02-05T00:56:29.391Z,35.67
2018-02-05T00:58:56.054Z,31.15
2018-02-05T01:01:22.705Z,31.35
2018-02-05T01:03:49.360Z,28.27
2018-02-05T01:06:16.002Z,34.08
2018-02-05T01:08:42.661Z,28.67
2018-02-05T01:11:09.307Z,25.42
2018-02-05T01:13:35.965Z,27.00
2018-02-05T01:16:02.616Z,31.87
2018-02-05T01:18:29.270Z,30.58
2018-02-05T01:20:55.907Z,25.90
2018-02-05T01:23:22.551Z,30.85
2018-02-05T01:25:49.204Z,30.17
2018-02-05T01:28:15.851Z,26.67
2018-02-05T01:30:42.487Z,29.00
2018-02-05T01:33:09.127Z,28.60
2018-02-05T01:35:35.783Z,28.12
2018-02-05T01:38:02.440Z,25.90
2018-02-05T01:40:29.099Z,24.77
2018-02-05T01:42:55.735Z,26.37
2018-02-05T01:45:22.395Z,31.48
2018-02-05T01:47:49.044Z,28.08
2018-02-05T01:50:15.728Z,26.85
2018-02-05T01:52:42.365Z,29.15
2018-02-05T01:55:09.023Z,29.95
2018-02-05T01:57:35.659Z,26.00
2018-02-05T02:00:02.390Z,25.55
2018-02-05T02:02:29.022Z,30.05
2018-02-05T02:04:55.653Z,26.87
2018-02-05T02:07:22.293Z,29.20
2018-02-05T02:09:48.919Z,29.63
2018-02-05T02:12:15.566Z,29.23
2018-02-05T02:14:42.198Z,29.00
2018-02-05T02:17:08.826Z,32.78
2018-02-05T02:19:35.460Z,30.25
2018-02-05T02:22:02.106Z,26.00
2018-02-05T02:24:28.746Z,28.20
2018-02-05T02:26:55.394Z,30.73
2018-02-05T02:29:22.031Z,29.85
2018-02-05T02:31:48.680Z,33.60
2018-02-05T02:34:15.330Z,29.70
2018-02-05T02:36:41.980Z,31.33
2018-02-05T02:39:08.628Z,34.13
2018-02-05T02:41:35.283Z,31.58
2018-02-05T02:44:01.922Z,28.02
2018-02-05T02:46:28.571Z,29.90
2018-02-05T02:48:55.209Z,34.83
2018-02-05T02:51:21.855Z,29.95
2018-02-05T02:53:48.495Z,32.40
2018-02-05T02:56:15.133Z,29.77
2018-02-05T02:58:41.767Z,32.20
2018-02-05T03:01:08.691Z,29.65
2018-02-05T03:03:35.331Z,30.50
2018-02-05T03:06:01.964Z,24.95
2018-02-05T03:08:28.599Z,34.03
2018-02-05T03:10:55.237Z,32.88
2018-02-05T03:13:21.882Z,33.40
2018-02-05T03:15:48.511Z,33.33
2018-02-05T03:18:15.155Z,30.70
2018-02-05T03:20:41.790Z,33.25
2018-02-05T03:23:08.451Z,25.85
2018-02-05T03:25:35.083Z,30.20
2018-02-05T03:28:01.739Z,32.70
2018-02-05T03:30:29.611Z,30.62
2018-02-05T03:32:56.266Z,32.05
2018-02-05T03:35:22.917Z,33.70
2018-02-05T03:37:49.580Z,31.85
2018-02-05T03:40:16.213Z,37.88
2018-02-05T03:42:42.850Z,35.70
2018-02-05T03:45:09.497Z,33.00
2018-02-05T03:47:36.136Z,29.90
2018-02-05T03:50:03.246Z,34.72
2018-02-05T03:52:29.875Z,32.45
2018-02-05T03:54:56.616Z,28.08
2018-02-05T03:57:23.276Z,30.42
2018-02-05T03:59:49.915Z,30.35
2018-02-05T04:02:16.551Z,31.37
2018-02-05T04:04:44.075Z,31.33
2018-02-05T04:07:15.565Z,32.55
2018-02-05T04:09:42.215Z,31.50
2018-02-05T04:12:08.865Z,35.67
2018-02-05T04:14:35.522Z,29.10
2018-02-05T04:17:02.168Z,28.62
2018-02-05T04:19:28.833Z,32.17
2018-02-05T04:21:55.483Z,30.02
2018-02-05T04:24:22.180Z,33.40
2018-02-05T04:26:48.818Z,29.40
2018-02-05T04:29:15.451Z,26.27
2018-02-05T04:31:42.092Z,28.65
2018-02-05T04:34:08.769Z,27.37
2018-02-05T04:36:35.472Z,29.30
2018-02-05T04:39:02.106Z,27.48
2018-02-05T04:41:28.749Z,28.42
2018-02-05T04:43:55.420Z,31.08
2018-02-05T04:46:22.166Z,34.17
2018-02-05T04:48:48.795Z,25.98
2018-02-05T04:51:15.431Z,28.05
2018-02-05T04:53:42.069Z,29.30
2018-02-05T04:56:08.721Z,30.45
2018-02-05T04:58:35.348Z,31.08
2018-02-05T05:01:02.015Z,27.90
2018-02-05T05:03:28.669Z,26.75
2018-02-05T05:05:55.306Z,26.87
2018-02-05T05:08:21.967Z,28.95
2018-02-05T05:10:48.651Z,27.33
2018-02-05T05:13:15.308Z,27.42
2018-02-05T05:15:41.976Z,24.58
2018-02-05T05:18:08.613Z,26.70
2018-02-05T05:20:35.267Z,25.73
2018-02-05T05:23:01.910Z,23.45
2018-02-05T05:25:28.553Z,25.67
2018-02-05T05:27:55.187Z,25.33
2018-02-05T05:30:21.827Z,22.40
2018-02-05T05:32:48.470Z,24.23
2018-02-05T05:35:15.098Z,22.15
2018-02-05T05:37:41.755Z,22.40
2018-02-05T05:40:08.398Z,27.85
2018-02-05T05:42:35.034Z,26.73
2018-02-05T05:45:01.682Z,29.10
2018-02-05T05:47:28.351Z,31.60
2018-02-05T05:49:54.987Z,27.62
2018-02-05T05:52:21.635Z,28.02
2018-02-05T05:54:48.269Z,26.30
2018-02-05T05:57:14.902Z,28.33
2018-02-05T05:59:41.574Z,27.73
2018-02-05T06:02:08.217Z,30.85
2018-02-05T06:04:34.878Z,27.67
2018-02-05T06:07:01.533Z,28.17
2018-02-05T06:09:28.179Z,33.25
2018-02-05T06:11:54.825Z,29.33
2018-02-05T06:14:21.479Z,31.73
2018-02-05T06:16:48.107Z,28.75
2018-02-05T06:19:14.776Z,31.58
2018-02-05T06:21:41.423Z,33.85
2018-02-05T06:24:08.068Z,25.73
2018-02-05T06:26:34.721Z,34.08
2018-02-05T06:29:01.379Z,41.80
2018-02-05T06:31:28.007Z,31.75
2018-02-05T06:33:54.660Z,29.98
2018-02-05T06:36:21.308Z,26.17
2018-02-05T06:38:47.959Z,28.42
2018-02-05T06:41:14.600Z,29.40
2018-02-05T06:43:41.226Z,34.00
2018-02-05T06:46:07.863Z,32.60
2018-02-05T06:48:34.510Z,27.55
2018-02-05T06:51:06.985Z,27.52
2018-02-05T06:53:39.459Z,30.40
2018-02-05T06:56:24.732Z,84.78
2018-02-05T06:58:51.368Z,33.10
2018-02-05T07:01:18.001Z,26.23
2018-02-05T07:03:44.642Z,32.70
2018-02-05T07:06:11.334Z,30.92
2018-02-05T07:08:37.967Z,44.65
2018-02-05T07:11:04.619Z,31.25
2018-02-05T07:13:31.258Z,29.15
2018-02-05T07:15:57.906Z,30.20
2018-02-05T07:18:24.556Z,28.85
2018-02-05T07:20:51.211Z,26.85
2018-02-05T07:23:17.847Z,32.15
2018-02-05T07:25:44.506Z,29.73
2018-02-05T07:28:11.147Z,27.45
2018-02-05T07:30:37.820Z,27.50
2018-02-05T07:33:04.463Z,28.87
2018-02-05T07:35:31.106Z,27.70
2018-02-05T07:37:57.744Z,23.77
2018-02-05T07:40:24.407Z,27.33
2018-02-05T07:42:51.037Z,23.55
2018-02-05T07:45:17.678Z,23.70
2018-02-05T07:47:44.334Z,21.98
2018-02-05T07:50:10.987Z,21.85
2018-02-05T07:52:37.626Z,19.37
2018-02-05T07:55:04.263Z,19.45
2018-02-05T07:57:30.957Z,22.92
2018-02-05T07:59:57.592Z,17.37
2018-02-05T08:02:24.246Z,19.12
2018-02-05T08:04:50.894Z,20.37
2018-02-05T08:07:17.562Z,20.73
2018-02-05T08:09:44.213Z,21.45
2018-02-05T08:12:10.871Z,20.55
2018-02-05T08:14:37.575Z,19.20
2018-02-05T08:17:04.199Z,17.40
2018-02-05T08:19:30.834Z,21.73
2018-02-05T08:21:57.525Z,16.95
2018-02-05T08:24:24.171Z,20.75
2018-02-05T08:26:50.868Z,21.45
2018-02-05T08:29:17.519Z,18.85
2018-02-05T08:31:44.557Z,16.55
2018-02-05T08:34:11.311Z,22.87
2018-02-05T08:36:37.948Z,21.75
2018-02-05T08:39:04.901Z,21.12
2018-02-05T08:41:31.884Z,19.27
2018-02-05T08:43:58.695Z,25.80
2018-02-05T08:46:25.456Z,19.12
2018-02-05T08:48:52.142Z,21.58
2018-02-05T08:51:18.814Z,22.50
2018-02-05T08:53:45.521Z,20.73
2018-02-05T08:56:12.203Z,22.42
2018-02-05T08:58:38.861Z,19.20
2018-02-05T09:01:05.644Z,21.95
2018-02-05T09:03:32.292Z,20.33
2018-02-05T09:05:58.978Z,24.10
2018-02-05T09:08:25.696Z,21.52
2018-02-05T09:10:52.442Z,20.05
2018-02-05T09:13:19.128Z,21.20
2018-02-05T09:15:45.794Z,21.95
2018-02-05T09:18:12.480Z,20.75
2018-02-05T09:20:39.809Z,22.30
2018-02-05T09:23:06.485Z,21.50
2018-02-05T09:25:33.129Z,18.98
2018-02-05T09:27:59.784Z,25.08
2018-02-05T09:30:26.424Z,23.60
2018-02-05T09:32:53.074Z,21.62
2018-02-05T09:35:19.720Z,18.50
2018-02-05T09:37:46.360Z,20.40
2018-02-05T09:40:13.019Z,31.62
2018-02-05T09:42:39.654Z,20.42
2018-02-05T09:45:06.312Z,21.80
2018-02-05T09:47:32.967Z,19.30
2018-02-05T09:49:59.620Z,19.65
2018-02-05T09:52:26.256Z,21.15
2018-02-05T09:54:52.899Z,22.52
2018-02-05T09:57:19.538Z,24.60
2018-02-05T09:59:46.175Z,22.13
2018-02-05T10:02:12.814Z,23.52
2018-02-05T10:04:39.446Z,23.67
2018-02-05T10:07:06.084Z,34.58
2018-02-05T10:09:32.807Z,36.97
2018-02-05T10:11:59.438Z,31.92
2018-02-05T10:14:26.081Z,21.27
2018-02-05T10:16:52.729Z,24.37
2018-02-05T10:19:19.367Z,35.30
2018-02-05T10:21:46.028Z,40.58
2018-02-05T10:24:12.685Z,20.35
2018-02-05T10:26:39.336Z,28.40
2018-02-05T10:29:05.979Z,25.98
2018-02-05T10:31:32.620Z,20.55
2018-02-05T10:33:59.266Z,24.45
2018-02-05T10:36:25.933Z,26.52
2018-02-05T10:38:52.572Z,23.42
2018-02-05T10:41:19.230Z,25.08
2018-02-05T10:43:45.869Z,26.75
2018-02-05T10:46:12.549Z,25.00
2018-02-05T10:48:39.189Z,22.80
2018-02-05T10:51:05.828Z,27.20
2018-02-05T10:53:32.510Z,22.60
2018-02-05T10:55:59.146Z,25.20
2018-02-05T10:58:25.967Z,26.55
2018-02-05T11:00:52.629Z,26.08
2018-02-05T11:03:19.340Z,24.55
2018-02-05T11:05:45.987Z,21.27
2018-02-05T11:08:12.619Z,20.45
2018-02-05T11:10:39.254Z,25.15
2018-02-05T11:13:05.895Z,19.83
2018-02-05T11:15:32.543Z,22.83
2018-02-05T11:17:59.189Z,23.25
2018-02-05T11:20:25.830Z,32.55
2018-02-05T11:22:52.463Z,41.03
2018-02-05T11:25:19.100Z,33.03
2018-02-05T11:27:45.738Z,22.37
2018-02-05T11:30:12.374Z,46.03
2018-02-05T11:32:39.031Z,36.55
2018-02-05T11:35:05.684Z,20.15
2018-02-05T11:37:32.365Z,23.35
2018-02-05T11:39:59.139Z,23.73
2018-02-05T11:42:25.778Z,27.95
2018-02-05T11:44:52.419Z,27.73
2018-02-05T11:47:19.055Z,24.80
2018-02-05T11:49:45.703Z,23.20
2018-02-05T11:52:12.352Z,40.25
2018-02-05T11:54:38.995Z,32.40
2018-02-05T11:57:05.644Z,22.00
2018-02-05T11:59:32.304Z,23.35
2018-02-05T12:01:58.937Z,36.33
2018-02-05T12:04:25.585Z,25.75
2018-02-05T12:06:52.269Z,24.35
2018-02-05T12:09:18.936Z,26.37
2018-02-05T12:11:45.578Z,29.50
2018-02-05T12:14:12.215Z,28.50
2018-02-05T12:16:38.862Z,26.55
2018-02-05T12:19:05.501Z,25.12
2018-02-05T12:21:32.183Z,34.72
2018-02-05T12:23:58.819Z,28.02
2018-02-05T12:26:25.474Z,29.92
2018-02-05T12:28:52.115Z,28.35
2018-02-05T12:31:18.772Z,31.90
2018-02-05T12:33:45.413Z,30.25
2018-02-05T12:36:12.079Z,24.98
2018-02-05T12:38:38.718Z,24.50
2018-02-05T12:41:05.372Z,25.88
2018-02-05T12:43:32.014Z,25.75
2018-02-05T12:45:58.675Z,23.52
2018-02-05T12:48:25.313Z,25.52
2018-02-05T12:50:51.962Z,26.17
2018-02-05T12:53:18.596Z,25.42
2018-02-05T12:55:45.251Z,25.42
2018-02-05T12:58:11.896Z,28.62
2018-02-05T13:00:54.286Z,25.85
2018-02-05T13:03:20.928Z,25.67
2018-02-05T13:06:05.405Z,24.77
2018-02-05T13:08:32.039Z,23.05
2018-02-05T13:10:58.674Z,24.67
2018-02-05T13:13:25.331Z,29.67
2018-02-05T13:15:51.967Z,31.55
2018-02-05T13:18:18.595Z,44.20
2018-02-05T13:20:45.242Z,41.45
2018-02-05T13:23:11.893Z,50.47
2018-02-05T13:25:38.536Z,29.73
2018-02-05T13:28:05.171Z,23.90
2018-02-05T13:30:31.831Z,25.00
2018-02-05T13:32:58.467Z,29.00
2018-02-05T13:35:25.111Z,29.80
2018-02-05T13:37:51.745Z,31.90
2018-02-05T13:40:18.394Z,28.50
2018-02-05T13:42:45.035Z,24.00
2018-02-05T13:45:11.664Z,25.92
2018-02-05T13:47:38.323Z,22.20
2018-02-05T13:50:04.964Z,24.50
2018-02-05T13:52:31.618Z,20.88
2018-02-05T13:54:58.273Z,19.83
2018-02-05T13:57:24.942Z,25.80
2018-02-05T13:59:51.591Z,58.05
2018-02-05T14:02:18.229Z,29.15
2018-02-05T14:04:44.876Z,26.33
2018-02-05T14:07:11.515Z,27.65
2018-02-05T14:09:38.154Z,29.37
2018-02-05T14:12:04.797Z,23.90
2018-02-05T14:14:31.450Z,18.05
2018-02-05T14:16:58.092Z,22.42
2018-02-05T14:19:24.726Z,16.30
2018-02-05T14:21:51.358Z,19.45
2018-02-05T14:24:17.996Z,22.20
2018-02-05T14:26:44.645Z,21.00
2018-02-05T14:29:11.301Z,20.02
2018-02-05T14:31:37.956Z,25.45
2018-02-05T14:34:04.647Z,22.27
2018-02-05T14:36:31.294Z,26.02
2018-02-05T14:38:57.967Z,50.17
2018-02-05T14:41:24.595Z,33.10
2018-02-05T14:43:51.247Z,27.67
2018-02-05T14:46:17.882Z,23.30
2018-02-05T14:48:44.900Z,74.72
2018-02-05T14:51:12.022Z,24.63
2018-02-05T14:53:39.155Z,67.40
2018-02-05T14:56:05.867Z,128.00
2018-02-05T14:58:32.516Z,30.58
2018-02-05T15:00:59.151Z,35.15
2018-02-05T15:03:25.788Z,34.50
2018-02-05T15:05:52.433Z,26.25
2018-02-05T15:08:19.064Z,39.38
2018-02-05T15:10:45.720Z,23.83
2018-02-05T15:13:12.354Z,19.50
2018-02-05T15:15:39.043Z,18.33
2018-02-05T15:18:05.680Z,16.58
2018-02-05T15:20:32.330Z,15.23
2018-02-05T15:22:59.811Z,17.52
2018-02-05T15:25:26.452Z,38.03
2018-02-05T15:27:53.095Z,16.25
2018-02-05T15:30:19.783Z,13.57
2018-02-05T15:32:46.407Z,14.02
2018-02-05T15:35:13.082Z,17.87
2018-02-05T15:37:39.736Z,18.83
2018-02-05T15:40:06.373Z,17.40
2018-02-05T15:42:33.008Z,15.35
2018-02-05T15:44:59.698Z,12.80
2018-02-05T15:47:26.326Z,20.88
2018-02-05T15:49:52.984Z,22.17
2018-02-05T15:52:19.622Z,15.30
2018-02-05T15:54:47.328Z,15.15
2018-02-05T15:57:14.277Z,11.52
2018-02-05T15:59:41.059Z,10.13
2018-02-05T16:02:07.882Z,10.25
2018-02-05T16:04:34.638Z,11.48
2018-02-05T16:07:01.375Z,13.98
2018-02-05T16:09:28.217Z,10.73
2018-02-05T16:11:54.857Z,11.85
2018-02-05T16:14:21.499Z,13.30
2018-02-05T16:16:48.162Z,11.75
2018-02-05T16:19:14.810Z,11.38
2018-02-05T16:21:41.491Z,12.82
2018-02-05T16:24:08.237Z,12.37
2018-02-05T16:26:34.909Z,10.55
2018-02-05T16:29:01.726Z,11.27
2018-02-05T16:31:28.511Z,13.50
2018-02-05T16:33:55.277Z,14.43
2018-02-05T16:36:22.129Z,11.65
2018-02-05T16:38:48.783Z,12.60
2018-02-05T16:41:15.453Z,12.98
2018-02-05T16:43:42.132Z,11.23
2018-02-05T16:46:08.848Z,10.27
2018-02-05T16:48:35.582Z,11.05
2018-02-05T16:51:02.253Z,12.73
2018-02-05T16:53:28.890Z,12.70
2018-02-05T16:55:55.551Z,11.25
2018-02-05T16:58:22.273Z,11.98
2018-02-05T17:00:48.957Z,8.65
2018-02-05T17:03:15.623Z,10.80
2018-02-05T17:05:42.314Z,9.50
2018-02-05T17:08:08.996Z,11.95
2018-02-05T17:10:35.952Z,10.75
2018-02-05T17:13:02.584Z,11.25
2018-02-05T17:15:29.379Z,10.50
2018-02-05T17:17:56.101Z,11.43
2018-02-05T17:20:22.767Z,10.68
2018-02-05T17:22:49.520Z,11.90
2018-02-05T17:25:16.236Z,9.65
2018-02-05T17:27:43.602Z,12.15
2018-02-05T17:30:10.343Z,12.98
2018-02-05T17:32:37.074Z,12.75
2018-02-05T17:35:03.738Z,10.75
2018-02-05T17:37:30.374Z,9.75
2018-02-05T17:39:57.021Z,10.93
2018-02-05T17:42:23.663Z,11.57
2018-02-05T17:44:50.500Z,10.65
2018-02-05T17:47:17.132Z,9.90
2018-02-05T17:49:43.775Z,12.20
2018-02-05T17:52:10.514Z,10.40
2018-02-05T17:54:37.259Z,11.65
2018-02-05T17:57:03.903Z,13.18
2018-02-05T17:59:30.580Z,13.57
2018-02-05T18:01:57.239Z,12.88
2018-02-05T18:04:23.937Z,14.65
2018-02-05T18:06:50.618Z,13.35
2018-02-05T18:09:17.335Z,15.75
2018-02-05T18:11:44.003Z,13.52
2018-02-05T18:14:10.689Z,14.20
2018-02-05T18:16:37.429Z,11.95
2018-02-05T18:19:04.089Z,14.35
2018-02-05T18:21:30.738Z,15.40
2018-02-05T18:23:57.400Z,13.55
2018-02-05T18:26:24.061Z,13.95
2018-02-05T18:28:50.715Z,12.55
2018-02-05T18:31:17.397Z,13.38
2018-02-05T18:33:44.027Z,12.70
2018-02-05T18:36:10.666Z,16.62
2018-02-05T18:38:37.318Z,12.68
2018-02-05T18:41:03.958Z,14.43
2018-02-05T18:43:30.645Z,12.82
2018-02-05T18:45:57.278Z,18.70
2018-02-05T18:48:23.923Z,16.08
2018-02-05T18:50:50.645Z,12.63
2018-02-05T18:53:17.304Z,13.13
2018-02-05T18:55:43.962Z,12.40
2018-02-05T18:58:10.623Z,13.80
2018-02-05T19:00:43.181Z,13.10
2018-02-05T19:03:10.047Z,15.30
2018-02-05T19:05:37.346Z,17.10
2018-02-05T19:08:04.282Z,13.73
2018-02-05T19:10:30.925Z,14.43
2018-02-05T19:12:57.632Z,14.65
2018-02-05T19:15:24.282Z,14.32
2018-02-05T19:17:51.251Z,16.25
2018-02-05T19:20:18.148Z,16.30
2018-02-05T19:22:44.836Z,15.07
2018-02-05T19:25:13.295Z,15.20
2018-02-05T19:27:40.604Z,14.25
2018-02-05T19:30:07.698Z,19.12
2018-02-05T19:32:34.603Z,15.82
2018-02-05T19:35:03.323Z,16.15
2018-02-05T19:37:29.991Z,14.73
2018-02-05T19:39:56.719Z,14.32
2018-02-05T19:42:23.432Z,20.27
2018-02-05T19:44:50.143Z,21.12
2018-02-05T19:47:16.825Z,26.17
2018-02-05T19:49:43.546Z,17.05
2018-02-05T19:52:10.240Z,17.15
2018-02-05T19:54:36.928Z,23.27
2018-02-05T19:57:03.606Z,72.87
2018-02-05T19:59:30.261Z,30.83
2018-02-05T20:01:56.913Z,23.52
2018-02-05T20:04:23.564Z,22.37
2018-02-05T20:06:50.233Z,17.45
2018-02-05T20:09:17.245Z,19.62
2018-02-05T20:11:52.865Z,18.75
2018-02-05T20:14:19.548Z,12.48
2018-02-05T20:16:46.225Z,15.30
2018-02-05T20:19:12.881Z,14.25
2018-02-05T20:21:39.578Z,19.67
2018-02-05T20:24:06.237Z,17.08
2018-02-05T20:26:32.899Z,18.75
2018-02-05T20:28:59.586Z,18.08
2018-02-05T20:31:26.265Z,18.98
2018-02-05T20:33:52.920Z,16.33
2018-02-05T20:36:19.586Z,13.82
2018-02-05T20:38:46.269Z,16.40
2018-02-05T20:41:12.940Z,13.43
2018-02-05T20:43:39.604Z,13.00
2018-02-05T20:46:06.300Z,13.35
2018-02-05T20:48:32.959Z,13.30
2018-02-05T20:50:59.638Z,17.62
2018-02-05T20:53:26.313Z,15.15
2018-02-05T20:55:52.960Z,12.93
2018-02-05T20:58:19.620Z,12.63
2018-02-05T21:00:46.274Z,15.50
2018-02-05T21:03:12.971Z,17.70
2018-02-05T21:05:39.641Z,12.88
2018-02-05T21:08:06.318Z,14.25
2018-02-05T21:10:32.989Z,15.85
2018-02-05T21:12:59.655Z,14.27
2018-02-05T21:15:26.344Z,12.52
2018-02-05T21:17:53.018Z,15.52
2018-02-05T21:20:19.670Z,13.70
2018-02-05T21:22:46.338Z,10.88
2018-02-05T21:25:12.977Z,14.93
2018-02-05T21:27:39.650Z,20.73
2018-02-05T21:30:06.331Z,12.52
2018-02-05T21:32:32.994Z,12.95
2018-02-05T21:34:59.678Z,11.00
2018-02-05T21:37:26.355Z,10.88
2018-02-05T21:39:53.009Z,18.77
2018-02-05T21:42:19.681Z,12.70
2018-02-05T21:44:46.346Z,14.07
2018-02-05T21:47:13.001Z,13.27
2018-02-05T21:49:39.648Z,10.60
2018-02-05T21:52:06.286Z,11.73
2018-02-05T21:54:32.945Z,11.07
2018-02-05T21:56:59.616Z,15.60
2018-02-05T21:59:26.290Z,11.70
2018-02-05T22:01:52.936Z,12.15
2018-02-05T22:04:19.615Z,14.77
2018-02-05T22:06:46.307Z,13.55
2018-02-05T22:09:13.098Z,11.80
2018-02-05T22:11:39.750Z,10.05
2018-02-05T22:14:06.426Z,12.37
2018-02-05T22:16:33.115Z,11.12
2018-02-05T22:18:59.781Z,12.65
2018-02-05T22:21:26.452Z,10.93
2018-02-05T22:23:53.125Z,10.55
2018-02-05T22:26:19.766Z,10.45
2018-02-05T22:28:46.429Z,13.65
2018-02-05T22:31:13.077Z,12.60
2018-02-05T22:33:39.778Z,12.25
2018-02-05T22:36:06.441Z,12.43
2018-02-05T22:38:33.109Z,13.85
2018-02-05T22:40:59.753Z,10.40
2018-02-05T22:43:26.402Z,10.05
2018-02-05T22:45:53.073Z,10.82
2018-02-05T22:48:19.725Z,11.05
2018-02-05T22:50:46.543Z,11.25
2018-02-05T22:53:13.568Z,11.50
2018-02-05T22:55:40.338Z,11.70
2018-02-05T22:58:07.138Z,12.57
2018-02-05T23:00:34.024Z,9.07
2018-02-05T23:03:00.935Z,9.90
2018-02-05T23:05:27.702Z,10.48
2018-02-05T23:07:54.650Z,13.52
2018-02-05T23:10:21.518Z,10.77
2018-02-05T23:12:48.238Z,12.13
2018-02-05T23:15:15.553Z,11.20
2018-02-05T23:17:42.380Z,10.95
2018-02-05T23:20:09.092Z,11.90
2018-02-05T23:22:36.059Z,13.07
2018-02-05T23:25:02.844Z,13.23
2018-02-05T23:27:29.540Z,14.63
2018-02-05T23:29:56.199Z,13.98
2018-02-05T23:32:22.880Z,10.32
2018-02-05T23:34:49.556Z,10.38
2018-02-05T23:37:16.214Z,10.80
2018-02-05T23:39:42.861Z,14.00
2018-02-05T23:42:09.498Z,9.98
2018-02-05T23:44:36.148Z,11.45
2018-02-05T23:47:02.802Z,11.20
2018-02-05T23:49:29.460Z,12.48
2018-02-05T23:51:56.144Z,12.02
2018-02-05T23:54:22.806Z,10.10
2018-02-05T23:56:49.453Z,10.65
2018-02-05T23:59:16.116Z,11.25
